LEMH/MAH METAR and TAF weather

Enter ICAO airport designator
Station Type Date Time Source
LEMH METAR 2019/02/18 04:00 UTC NOAA

LEMH 180400Z AUTO 12006KT 9999 SCT015/// 10/08 Q1023


Station Type Date Time Source
LEMH Decoded METAR 2019/02/18 04:00 UTC NOAA

Menorca / Mahon, Spain (LEMH) 39-52N 004-14E 82M
Feb 17, 2019 - 11:00 PM EST / 2019.02.18 0400 UTC
Wind: from the ESE (120 degrees) at 7 MPH (6 KT):0
Visibility: greater than 7 mile(s):0
Sky conditions: partly cloudy
Temperature: 50 F (10 C)
Dew Point: 46 F (8 C)
Relative Humidity: 87%
Pressure (altimeter): 30.21 in. Hg (1023 hPa)
ob: LEMH 180400Z AUTO 12006KT 9999 SCT015/// 10/08 Q1023
cycle: 4

Station Type Date Time Source
LEMH TAF 2019/02/18 03:27 UTC NOAA

TAF LEMH 180200Z 1803/1903 14008KT 9999 SCT014 TX16/1812Z TN06/1807Z PROB30
TEMPO 1803/1809 BKN012


Example: see airport list